sensor_id;sensor_type;location;lat;lon;timestamp;P1;durP1;ratioP1;P2;durP2;ratioP2
9675;SDS011;4876;42.656;23.292;2023-09-19T00:01:43;13.07;;;6.87;;
9675;SDS011;4876;42.656;23.292;2023-09-19T00:04:12;7.73;;;6.73;;
9675;SDS011;4876;42.656;23.292;2023-09-19T00:06:39;8.13;;;6.77;;
9675;SDS011;4876;42.656;23.292;2023-09-19T00:09:09;8.77;;;6.63;;
9675;SDS011;4876;42.656;23.292;2023-09-19T00:11:36;7.20;;;6.30;;
9675;SDS011;4876;42.656;23.292;2023-09-19T00:14:04;9.90;;;6.43;;
9675;SDS011;4876;42.656;23.292;2023-09-19T00:16:33;9.77;;;6.80;;
9675;SDS011;4876;42.656;23.292;2023-09-19T00:19:01;7.70;;;6.40;;
9675;SDS011;4876;42.656;23.292;2023-09-19T00:21:34;7.20;;;6.23;;
9675;SDS011;4876;42.656;23.292;2023-09-19T00:24:03;8.07;;;6.47;;
9675;SDS011;4876;42.656;23.292;2023-09-19T00:26:31;12.37;;;7.33;;
9675;SDS011;4876;42.656;23.292;2023-09-19T00:28:59;8.97;;;6.27;;
9675;SDS011;4876;42.656;23.292;2023-09-19T00:31:30;9.50;;;6.67;;
9675;SDS011;4876;42.656;23.292;2023-09-19T00:33:56;8.40;;;6.80;;
9675;SDS011;4876;42.656;23.292;2023-09-19T00:36:27;7.57;;;6.70;;
9675;SDS011;4876;42.656;23.292;2023-09-19T00:38:56;11.23;;;7.17;;
9675;SDS011;4876;42.656;23.292;2023-09-19T00:41:23;8.00;;;6.53;;
9675;SDS011;4876;42.656;23.292;2023-09-19T00:43:50;11.47;;;7.97;;
9675;SDS011;4876;42.656;23.292;2023-09-19T00:46:17;8.87;;;7.10;;
9675;SDS011;4876;42.656;23.292;2023-09-19T00:48:43;7.57;;;6.80;;
9675;SDS011;4876;42.656;23.292;2023-09-19T00:51:11;8.77;;;7.00;;
9675;SDS011;4876;42.656;23.292;2023-09-19T00:53:41;6.90;;;6.17;;
9675;SDS011;4876;42.656;23.292;2023-09-19T00:56:12;9.63;;;6.43;;
9675;SDS011;4876;42.656;23.292;2023-09-19T00:58:40;11.93;;;6.80;;
9675;SDS011;4876;42.656;23.292;2023-09-19T01:01:07;8.37;;;6.53;;
9675;SDS011;4876;42.656;23.292;2023-09-19T01:03:36;10.47;;;6.43;;
9675;SDS011;4876;42.656;23.292;2023-09-19T01:06:04;8.90;;;6.37;;
9675;SDS011;4876;42.656;23.292;2023-09-19T01:08:32;10.23;;;6.70;;
9675;SDS011;4876;42.656;23.292;2023-09-19T01:11:03;10.60;;;6.43;;
9675;SDS011;4876;42.656;23.292;2023-09-19T01:13:44;10.30;;;7.03;;
9675;SDS011;4876;42.656;23.292;2023-09-19T01:16:26;10.47;;;6.90;;
9675;SDS011;4876;42.656;23.292;2023-09-19T01:19:01;9.70;;;7.13;;
9675;SDS011;4876;42.656;23.292;2023-09-19T01:21:48;9.40;;;7.13;;
9675;SDS011;4876;42.656;23.292;2023-09-19T01:24:34;10.83;;;6.93;;
9675;SDS011;4876;42.656;23.292;2023-09-19T01:27:49;8.67;;;6.60;;
9675;SDS011;4876;42.656;23.292;2023-09-19T01:30:35;9.43;;;7.13;;
9675;SDS011;4876;42.656;23.292;2023-09-19T01:33:06;8.17;;;6.90;;
9675;SDS011;4876;42.656;23.292;2023-09-19T01:35:33;7.97;;;6.43;;
9675;SDS011;4876;42.656;23.292;2023-09-19T01:38:02;9.07;;;7.00;;
9675;SDS011;4876;42.656;23.292;2023-09-19T01:40:29;12.80;;;6.80;;
9675;SDS011;4876;42.656;23.292;2023-09-19T01:42:57;9.00;;;6.60;;
9675;SDS011;4876;42.656;23.292;2023-09-19T01:45:31;9.27;;;6.47;;
9675;SDS011;4876;42.656;23.292;2023-09-19T01:48:08;8.77;;;6.40;;
9675;SDS011;4876;42.656;23.292;2023-09-19T01:50:47;9.70;;;7.37;;
9675;SDS011;4876;42.656;23.292;2023-09-19T01:53:22;9.30;;;7.20;;
9675;SDS011;4876;42.656;23.292;2023-09-19T01:55:53;10.70;;;7.30;;
9675;SDS011;4876;42.656;23.292;2023-09-19T01:58:22;10.33;;;7.23;;
9675;SDS011;4876;42.656;23.292;2023-09-19T02:01:00;11.30;;;7.50;;
9675;SDS011;4876;42.656;23.292;2023-09-19T02:03:31;13.30;;;7.80;;
9675;SDS011;4876;42.656;23.292;2023-09-19T02:05:59;13.00;;;7.23;;
9675;SDS011;4876;42.656;23.292;2023-09-19T02:08:28;9.00;;;7.00;;
9675;SDS011;4876;42.656;23.292;2023-09-19T02:10:58;9.57;;;7.50;;
9675;SDS011;4876;42.656;23.292;2023-09-19T02:13:25;12.20;;;6.40;;
9675;SDS011;4876;42.656;23.292;2023-09-19T02:15:53;9.27;;;7.60;;
9675;SDS011;4876;42.656;23.292;2023-09-19T02:18:22;8.67;;;6.83;;
9675;SDS011;4876;42.656;23.292;2023-09-19T02:20:49;10.60;;;7.13;;
9675;SDS011;4876;42.656;23.292;2023-09-19T02:23:16;9.43;;;6.97;;
9675;SDS011;4876;42.656;23.292;2023-09-19T02:25:51;8.93;;;7.40;;
9675;SDS011;4876;42.656;23.292;2023-09-19T02:28:18;7.87;;;6.97;;
9675;SDS011;4876;42.656;23.292;2023-09-19T02:30:47;11.87;;;7.67;;
9675;SDS011;4876;42.656;23.292;2023-09-19T02:33:14;10.40;;;7.03;;
9675;SDS011;4876;42.656;23.292;2023-09-19T02:35:43;9.30;;;7.70;;
9675;SDS011;4876;42.656;23.292;2023-09-19T02:38:11;9.17;;;7.60;;
9675;SDS011;4876;42.656;23.292;2023-09-19T02:40:38;9.90;;;7.70;;
9675;SDS011;4876;42.656;23.292;2023-09-19T02:43:05;9.17;;;7.27;;
9675;SDS011;4876;42.656;23.292;2023-09-19T02:45:33;11.27;;;7.40;;
9675;SDS011;4876;42.656;23.292;2023-09-19T02:48:00;10.87;;;7.17;;
9675;SDS011;4876;42.656;23.292;2023-09-19T02:50:29;10.27;;;7.50;;
9675;SDS011;4876;42.656;23.292;2023-09-19T02:52:57;15.93;;;7.83;;
9675;SDS011;4876;42.656;23.292;2023-09-19T02:55:24;10.50;;;7.17;;
9675;SDS011;4876;42.656;23.292;2023-09-19T02:57:52;14.87;;;7.87;;
9675;SDS011;4876;42.656;23.292;2023-09-19T03:00:20;9.20;;;7.33;;
9675;SDS011;4876;42.656;23.292;2023-09-19T03:02:48;10.40;;;7.67;;
9675;SDS011;4876;42.656;23.292;2023-09-19T03:05:15;9.83;;;7.07;;
9675;SDS011;4876;42.656;23.292;2023-09-19T03:07:43;13.03;;;7.23;;
9675;SDS011;4876;42.656;23.292;2023-09-19T03:10:12;14.30;;;7.83;;
9675;SDS011;4876;42.656;23.292;2023-09-19T03:12:42;11.07;;;6.73;;
9675;SDS011;4876;42.656;23.292;2023-09-19T03:15:09;11.63;;;8.33;;
9675;SDS011;4876;42.656;23.292;2023-09-19T03:17:36;9.77;;;7.10;;
9675;SDS011;4876;42.656;23.292;2023-09-19T03:20:03;8.90;;;7.73;;
9675;SDS011;4876;42.656;23.292;2023-09-19T03:22:33;13.60;;;7.73;;
9675;SDS011;4876;42.656;23.292;2023-09-19T03:25:01;12.37;;;8.00;;
9675;SDS011;4876;42.656;23.292;2023-09-19T03:27:30;8.33;;;7.53;;
9675;SDS011;4876;42.656;23.292;2023-09-19T03:29:57;9.87;;;7.33;;
9675;SDS011;4876;42.656;23.292;2023-09-19T03:32:23;12.67;;;8.00;;
9675;SDS011;4876;42.656;23.292;2023-09-19T03:34:50;9.00;;;7.47;;
9675;SDS011;4876;42.656;23.292;2023-09-19T03:37:17;12.43;;;7.63;;
9675;SDS011;4876;42.656;23.292;2023-09-19T03:39:44;13.53;;;7.73;;
9675;SDS011;4876;42.656;23.292;2023-09-19T03:42:11;12.17;;;7.83;;
9675;SDS011;4876;42.656;23.292;2023-09-19T03:44:39;9.97;;;8.10;;
9675;SDS011;4876;42.656;23.292;2023-09-19T03:47:06;9.73;;;7.60;;
9675;SDS011;4876;42.656;23.292;2023-09-19T03:49:33;12.80;;;7.83;;
9675;SDS011;4876;42.656;23.292;2023-09-19T03:52:00;13.37;;;8.40;;
9675;SDS011;4876;42.656;23.292;2023-09-19T03:54:27;17.60;;;7.27;;
9675;SDS011;4876;42.656;23.292;2023-09-19T03:56:54;13.53;;;8.00;;
9675;SDS011;4876;42.656;23.292;2023-09-19T03:59:21;12.57;;;8.40;;
9675;SDS011;4876;42.656;23.292;2023-09-19T04:01:49;13.50;;;8.10;;
9675;SDS011;4876;42.656;23.292;2023-09-19T04:04:21;16.33;;;8.80;;
9675;SDS011;4876;42.656;23.292;2023-09-19T04:06:50;18.90;;;9.03;;
9675;SDS011;4876;42.656;23.292;2023-09-19T04:09:17;14.63;;;8.23;;
9675;SDS011;4876;42.656;23.292;2023-09-19T04:11:44;15.63;;;9.73;;
9675;SDS011;4876;42.656;23.292;2023-09-19T04:14:10;15.90;;;8.63;;
9675;SDS011;4876;42.656;23.292;2023-09-19T04:16:37;13.90;;;10.17;;
9675;SDS011;4876;42.656;23.292;2023-09-19T04:19:06;14.50;;;9.80;;
9675;SDS011;4876;42.656;23.292;2023-09-19T04:21:33;19.73;;;10.27;;
9675;SDS011;4876;42.656;23.292;2023-09-19T04:24:00;18.10;;;9.13;;
9675;SDS011;4876;42.656;23.292;2023-09-19T04:26:27;16.97;;;9.47;;
9675;SDS011;4876;42.656;23.292;2023-09-19T04:28:53;17.83;;;9.60;;
9675;SDS011;4876;42.656;23.292;2023-09-19T04:31:21;16.80;;;9.40;;
9675;SDS011;4876;42.656;23.292;2023-09-19T04:33:48;15.37;;;8.90;;
9675;SDS011;4876;42.656;23.292;2023-09-19T04:36:16;16.23;;;8.57;;
9675;SDS011;4876;42.656;23.292;2023-09-19T04:38:43;13.63;;;8.03;;
9675;SDS011;4876;42.656;23.292;2023-09-19T04:41:10;15.67;;;7.57;;
9675;SDS011;4876;42.656;23.292;2023-09-19T04:43:36;19.17;;;8.23;;
9675;SDS011;4876;42.656;23.292;2023-09-19T04:46:03;13.97;;;7.70;;
9675;SDS011;4876;42.656;23.292;2023-09-19T04:48:31;15.47;;;7.87;;
9675;SDS011;4876;42.656;23.292;2023-09-19T04:50:59;16.50;;;7.10;;
9675;SDS011;4876;42.656;23.292;2023-09-19T04:53:28;22.87;;;7.77;;
9675;SDS011;4876;42.656;23.292;2023-09-19T04:55:55;17.27;;;7.33;;
9675;SDS011;4876;42.656;23.292;2023-09-19T04:58:21;12.97;;;7.67;;
9675;SDS011;4876;42.656;23.292;2023-09-19T05:00:48;13.97;;;7.90;;
9675;SDS011;4876;42.656;23.292;2023-09-19T05:03:16;21.33;;;7.60;;
9675;SDS011;4876;42.656;23.292;2023-09-19T05:05:45;10.93;;;7.40;;
9675;SDS011;4876;42.656;23.292;2023-09-19T05:08:12;22.10;;;9.20;;
9675;SDS011;4876;42.656;23.292;2023-09-19T05:10:41;13.10;;;8.50;;
9675;SDS011;4876;42.656;23.292;2023-09-19T05:13:08;17.77;;;8.43;;
9675;SDS011;4876;42.656;23.292;2023-09-19T05:15:35;9.10;;;7.37;;
9675;SDS011;4876;42.656;23.292;2023-09-19T05:18:02;10.83;;;7.50;;
9675;SDS011;4876;42.656;23.292;2023-09-19T05:20:31;8.47;;;7.00;;
9675;SDS011;4876;42.656;23.292;2023-09-19T05:23:00;11.73;;;7.83;;
9675;SDS011;4876;42.656;23.292;2023-09-19T05:25:28;9.93;;;7.00;;
9675;SDS011;4876;42.656;23.292;2023-09-19T05:27:57;10.10;;;7.20;;
9675;SDS011;4876;42.656;23.292;2023-09-19T05:30:25;12.80;;;8.03;;
9675;SDS011;4876;42.656;23.292;2023-09-19T05:32:54;14.33;;;8.63;;
9675;SDS011;4876;42.656;23.292;2023-09-19T05:35:22;12.07;;;8.23;;
9675;SDS011;4876;42.656;23.292;2023-09-19T05:37:50;12.40;;;7.47;;
9675;SDS011;4876;42.656;23.292;2023-09-19T05:40:17;11.97;;;8.30;;
9675;SDS011;4876;42.656;23.292;2023-09-19T05:42:44;9.33;;;7.13;;
9675;SDS011;4876;42.656;23.292;2023-09-19T05:45:13;10.20;;;7.43;;
9675;SDS011;4876;42.656;23.292;2023-09-19T05:47:44;13.70;;;8.37;;
9675;SDS011;4876;42.656;23.292;2023-09-19T05:50:12;15.67;;;7.67;;
9675;SDS011;4876;42.656;23.292;2023-09-19T05:52:40;14.30;;;7.70;;
9675;SDS011;4876;42.656;23.292;2023-09-19T05:55:09;10.93;;;8.17;;
9675;SDS011;4876;42.656;23.292;2023-09-19T05:57:36;11.37;;;8.87;;
9675;SDS011;4876;42.656;23.292;2023-09-19T06:00:04;16.77;;;9.10;;
9675;SDS011;4876;42.656;23.292;2023-09-19T06:02:37;17.03;;;8.10;;
9675;SDS011;4876;42.656;23.292;2023-09-19T06:05:05;13.00;;;8.50;;
9675;SDS011;4876;42.656;23.292;2023-09-19T06:07:35;18.87;;;9.30;;
9675;SDS011;4876;42.656;23.292;2023-09-19T06:10:02;23.33;;;8.30;;
9675;SDS011;4876;42.656;23.292;2023-09-19T06:12:32;12.30;;;8.43;;
9675;SDS011;4876;42.656;23.292;2023-09-19T06:15:02;14.50;;;8.70;;
9675;SDS011;4876;42.656;23.292;2023-09-19T06:17:33;13.23;;;8.10;;
9675;SDS011;4876;42.656;23.292;2023-09-19T06:20:04;14.77;;;8.40;;
9675;SDS011;4876;42.656;23.292;2023-09-19T06:22:37;17.13;;;8.30;;
9675;SDS011;4876;42.656;23.292;2023-09-19T06:25:07;15.53;;;8.90;;
9675;SDS011;4876;42.656;23.292;2023-09-19T06:27:36;15.30;;;8.37;;
9675;SDS011;4876;42.656;23.292;2023-09-19T06:30:04;15.77;;;8.17;;
9675;SDS011;4876;42.656;23.292;2023-09-19T06:32:33;14.00;;;7.93;;
9675;SDS011;4876;42.656;23.292;2023-09-19T06:35:00;11.50;;;7.63;;
9675;SDS011;4876;42.656;23.292;2023-09-19T06:37:28;13.83;;;7.93;;
9675;SDS011;4876;42.656;23.292;2023-09-19T06:39:56;13.00;;;8.03;;
9675;SDS011;4876;42.656;23.292;2023-09-19T06:42:23;16.77;;;8.10;;
9675;SDS011;4876;42.656;23.292;2023-09-19T06:44:49;19.17;;;7.93;;
9675;SDS011;4876;42.656;23.292;2023-09-19T06:47:16;19.17;;;8.00;;
9675;SDS011;4876;42.656;23.292;2023-09-19T06:49:43;13.23;;;7.73;;
9675;SDS011;4876;42.656;23.292;2023-09-19T06:52:10;11.77;;;7.33;;
9675;SDS011;4876;42.656;23.292;2023-09-19T06:54:38;13.60;;;7.60;;
9675;SDS011;4876;42.656;23.292;2023-09-19T06:57:06;14.30;;;7.03;;
9675;SDS011;4876;42.656;23.292;2023-09-19T06:59:34;15.23;;;6.77;;
9675;SDS011;4876;42.656;23.292;2023-09-19T07:02:02;16.30;;;7.77;;
9675;SDS011;4876;42.656;23.292;2023-09-19T07:04:31;12.93;;;6.93;;
9675;SDS011;4876;42.656;23.292;2023-09-19T07:06:58;20.47;;;6.87;;
9675;SDS011;4876;42.656;23.292;2023-09-19T07:09:25;13.27;;;7.30;;
9675;SDS011;4876;42.656;23.292;2023-09-19T07:11:54;11.10;;;6.97;;
9675;SDS011;4876;42.656;23.292;2023-09-19T07:14:21;16.87;;;7.33;;
9675;SDS011;4876;42.656;23.292;2023-09-19T07:16:48;12.03;;;7.07;;
9675;SDS011;4876;42.656;23.292;2023-09-19T07:19:15;15.60;;;6.23;;
9675;SDS011;4876;42.656;23.292;2023-09-19T07:21:42;11.43;;;7.40;;
9675;SDS011;4876;42.656;23.292;2023-09-19T07:24:09;11.20;;;7.43;;
9675;SDS011;4876;42.656;23.292;2023-09-19T07:26:36;14.97;;;7.00;;
9675;SDS011;4876;42.656;23.292;2023-09-19T07:29:06;13.23;;;7.27;;
9675;SDS011;4876;42.656;23.292;2023-09-19T07:31:34;12.17;;;7.57;;
9675;SDS011;4876;42.656;23.292;2023-09-19T07:34:00;12.60;;;6.93;;
9675;SDS011;4876;42.656;23.292;2023-09-19T07:36:29;15.40;;;6.83;;
9675;SDS011;4876;42.656;23.292;2023-09-19T07:38:55;14.80;;;7.57;;
9675;SDS011;4876;42.656;23.292;2023-09-19T07:41:23;10.53;;;6.77;;
9675;SDS011;4876;42.656;23.292;2023-09-19T07:43:50;10.00;;;7.03;;
9675;SDS011;4876;42.656;23.292;2023-09-19T07:46:19;11.97;;;7.13;;
9675;SDS011;4876;42.656;23.292;2023-09-19T07:48:46;11.43;;;6.50;;
9675;SDS011;4876;42.656;23.292;2023-09-19T07:51:14;37.67;;;6.93;;
9675;SDS011;4876;42.656;23.292;2023-09-19T07:53:41;11.07;;;5.87;;
9675;SDS011;4876;42.656;23.292;2023-09-19T07:56:09;13.83;;;5.90;;
9675;SDS011;4876;42.656;23.292;2023-09-19T07:58:38;9.37;;;6.37;;
9675;SDS011;4876;42.656;23.292;2023-09-19T08:01:10;8.57;;;6.37;;
9675;SDS011;4876;42.656;23.292;2023-09-19T08:03:39;11.53;;;6.80;;
9675;SDS011;4876;42.656;23.292;2023-09-19T08:06:07;10.63;;;6.30;;
9675;SDS011;4876;42.656;23.292;2023-09-19T08:08:34;13.17;;;6.10;;
9675;SDS011;4876;42.656;23.292;2023-09-19T08:11:02;11.97;;;6.70;;
9675;SDS011;4876;42.656;23.292;2023-09-19T08:13:36;8.87;;;6.73;;
9675;SDS011;4876;42.656;23.292;2023-09-19T08:16:06;14.50;;;6.83;;
9675;SDS011;4876;42.656;23.292;2023-09-19T08:18:33;13.13;;;6.57;;
9675;SDS011;4876;42.656;23.292;2023-09-19T08:21:01;12.70;;;6.80;;
9675;SDS011;4876;42.656;23.292;2023-09-19T08:23:28;13.83;;;7.50;;
9675;SDS011;4876;42.656;23.292;2023-09-19T08:25:57;18.13;;;7.47;;
9675;SDS011;4876;42.656;23.292;2023-09-19T08:28:27;19.60;;;7.03;;
9675;SDS011;4876;42.656;23.292;2023-09-19T08:30:55;13.30;;;7.67;;
9675;SDS011;4876;42.656;23.292;2023-09-19T08:33:23;12.17;;;7.83;;
9675;SDS011;4876;42.656;23.292;2023-09-19T08:35:50;9.93;;;7.53;;
9675;SDS011;4876;42.656;23.292;2023-09-19T08:38:18;17.67;;;7.37;;
9675;SDS011;4876;42.656;23.292;2023-09-19T08:40:45;15.33;;;7.23;;
9675;SDS011;4876;42.656;23.292;2023-09-19T08:43:12;17.37;;;7.70;;
9675;SDS011;4876;42.656;23.292;2023-09-19T08:45:39;14.40;;;7.03;;
9675;SDS011;4876;42.656;23.292;2023-09-19T08:48:10;15.33;;;7.37;;
9675;SDS011;4876;42.656;23.292;2023-09-19T08:50:49;15.43;;;7.43;;
9675;SDS011;4876;42.656;23.292;2023-09-19T08:53:26;13.83;;;6.77;;
9675;SDS011;4876;42.656;23.292;2023-09-19T08:55:58;14.47;;;7.30;;
9675;SDS011;4876;42.656;23.292;2023-09-19T08:58:28;14.27;;;7.50;;
9675;SDS011;4876;42.656;23.292;2023-09-19T09:01:00;18.97;;;7.37;;
9675;SDS011;4876;42.656;23.292;2023-09-19T09:03:32;12.90;;;7.27;;
9675;SDS011;4876;42.656;23.292;2023-09-19T09:06:00;20.23;;;6.87;;
9675;SDS011;4876;42.656;23.292;2023-09-19T09:08:29;10.27;;;6.57;;
9675;SDS011;4876;42.656;23.292;2023-09-19T09:10:57;14.37;;;7.27;;
9675;SDS011;4876;42.656;23.292;2023-09-19T09:13:25;17.87;;;8.07;;
9675;SDS011;4876;42.656;23.292;2023-09-19T09:15:53;10.27;;;6.90;;
9675;SDS011;4876;42.656;23.292;2023-09-19T09:18:20;17.67;;;7.50;;
9675;SDS011;4876;42.656;23.292;2023-09-19T09:20:47;13.10;;;7.50;;
9675;SDS011;4876;42.656;23.292;2023-09-19T09:23:14;12.83;;;7.17;;
9675;SDS011;4876;42.656;23.292;2023-09-19T09:25:48;18.63;;;7.70;;
9675;SDS011;4876;42.656;23.292;2023-09-19T09:28:20;18.13;;;7.00;;
9675;SDS011;4876;42.656;23.292;2023-09-19T09:30:48;13.17;;;7.33;;
9675;SDS011;4876;42.656;23.292;2023-09-19T09:33:15;11.10;;;7.07;;
9675;SDS011;4876;42.656;23.292;2023-09-19T09:35:47;11.63;;;7.00;;
9675;SDS011;4876;42.656;23.292;2023-09-19T09:38:18;14.80;;;6.47;;
9675;SDS011;4876;42.656;23.292;2023-09-19T09:40:46;14.70;;;8.30;;
9675;SDS011;4876;42.656;23.292;2023-09-19T09:43:25;15.50;;;7.10;;
9675;SDS011;4876;42.656;23.292;2023-09-19T09:46:06;13.53;;;6.47;;
9675;SDS011;4876;42.656;23.292;2023-09-19T09:48:58;8.10;;;6.70;;
9675;SDS011;4876;42.656;23.292;2023-09-19T09:51:59;12.47;;;7.27;;
9675;SDS011;4876;42.656;23.292;2023-09-19T09:54:31;18.13;;;7.90;;
9675;SDS011;4876;42.656;23.292;2023-09-19T09:57:04;15.40;;;8.07;;
9675;SDS011;4876;42.656;23.292;2023-09-19T09:59:51;12.70;;;7.17;;
9675;SDS011;4876;42.656;23.292;2023-09-19T10:02:21;11.10;;;7.53;;
9675;SDS011;4876;42.656;23.292;2023-09-19T10:04:54;10.67;;;8.00;;
9675;SDS011;4876;42.656;23.292;2023-09-19T10:07:40;13.50;;;7.57;;
9675;SDS011;4876;42.656;23.292;2023-09-19T10:10:12;17.70;;;7.50;;
9675;SDS011;4876;42.656;23.292;2023-09-19T10:12:44;11.83;;;6.37;;
9675;SDS011;4876;42.656;23.292;2023-09-19T10:15:14;12.77;;;7.00;;
9675;SDS011;4876;42.656;23.292;2023-09-19T10:17:45;11.27;;;6.93;;
9675;SDS011;4876;42.656;23.292;2023-09-19T10:20:13;16.90;;;7.67;;
9675;SDS011;4876;42.656;23.292;2023-09-19T10:22:52;17.33;;;7.23;;
9675;SDS011;4876;42.656;23.292;2023-09-19T10:25:26;14.40;;;7.23;;
9675;SDS011;4876;42.656;23.292;2023-09-19T10:27:57;11.37;;;6.83;;
9675;SDS011;4876;42.656;23.292;2023-09-19T10:30:29;11.90;;;6.40;;
9675;SDS011;4876;42.656;23.292;2023-09-19T10:33:00;11.60;;;7.50;;
9675;SDS011;4876;42.656;23.292;2023-09-19T10:35:28;10.60;;;6.77;;
9675;SDS011;4876;42.656;23.292;2023-09-19T10:37:57;13.33;;;7.03;;
9675;SDS011;4876;42.656;23.292;2023-09-19T10:40:26;8.40;;;6.57;;
9675;SDS011;4876;42.656;23.292;2023-09-19T10:43:02;26.47;;;7.47;;
9675;SDS011;4876;42.656;23.292;2023-09-19T10:45:30;10.83;;;6.80;;
9675;SDS011;4876;42.656;23.292;2023-09-19T10:47:58;9.37;;;7.53;;
9675;SDS011;4876;42.656;23.292;2023-09-19T10:50:27;12.47;;;6.57;;
9675;SDS011;4876;42.656;23.292;2023-09-19T10:52:59;18.90;;;7.30;;
9675;SDS011;4876;42.656;23.292;2023-09-19T10:55:33;11.53;;;6.50;;
9675;SDS011;4876;42.656;23.292;2023-09-19T10:58:03;8.07;;;7.10;;
9675;SDS011;4876;42.656;23.292;2023-09-19T11:00:51;9.87;;;6.50;;
9675;SDS011;4876;42.656;23.292;2023-09-19T11:03:21;11.03;;;7.07;;
9675;SDS011;4876;42.656;23.292;2023-09-19T11:06:05;8.73;;;6.80;;
9675;SDS011;4876;42.656;23.292;2023-09-19T11:11:45;16.33;;;6.90;;
9675;SDS011;4876;42.656;23.292;2023-09-19T11:14:29;14.80;;;6.97;;
9675;SDS011;4876;42.656;23.292;2023-09-19T11:20:20;13.40;;;6.50;;
9675;SDS011;4876;42.656;23.292;2023-09-19T11:25:51;11.07;;;7.00;;
9675;SDS011;4876;42.656;23.292;2023-09-19T11:28:34;18.70;;;6.80;;
9675;SDS011;4876;42.656;23.292;2023-09-19T11:40:36;18.50;;;6.90;;
9675;SDS011;4876;42.656;23.292;2023-09-19T11:46:05;10.57;;;6.10;;
9675;SDS011;4876;42.656;23.292;2023-09-19T11:48:32;11.63;;;7.03;;
9675;SDS011;4876;42.656;23.292;2023-09-19T11:51:10;9.53;;;5.93;;
9675;SDS011;4876;42.656;23.292;2023-09-19T11:53:49;11.63;;;6.03;;
9675;SDS011;4876;42.656;23.292;2023-09-19T11:56:17;9.80;;;6.20;;
9675;SDS011;4876;42.656;23.292;2023-09-19T11:58:46;16.00;;;6.40;;
9675;SDS011;4876;42.656;23.292;2023-09-19T12:01:14;7.00;;;5.77;;
9675;SDS011;4876;42.656;23.292;2023-09-19T12:03:46;9.83;;;5.93;;
9675;SDS011;4876;42.656;23.292;2023-09-19T12:06:20;11.60;;;6.37;;
9675;SDS011;4876;42.656;23.292;2023-09-19T12:08:49;12.17;;;6.33;;
9675;SDS011;4876;42.656;23.292;2023-09-19T12:11:19;15.60;;;6.40;;
9675;SDS011;4876;42.656;23.292;2023-09-19T12:13:48;9.93;;;6.70;;
9675;SDS011;4876;42.656;23.292;2023-09-19T12:16:17;11.23;;;5.97;;
9675;SDS011;4876;42.656;23.292;2023-09-19T12:18:47;8.30;;;6.23;;
9675;SDS011;4876;42.656;23.292;2023-09-19T12:21:23;9.43;;;6.60;;
9675;SDS011;4876;42.656;23.292;2023-09-19T12:24:05;11.10;;;6.90;;
9675;SDS011;4876;42.656;23.292;2023-09-19T12:26:39;11.27;;;6.20;;
9675;SDS011;4876;42.656;23.292;2023-09-19T12:29:15;8.30;;;6.40;;
9675;SDS011;4876;42.656;23.292;2023-09-19T12:31:50;9.97;;;6.53;;
9675;SDS011;4876;42.656;23.292;2023-09-19T12:34:21;10.87;;;6.40;;
9675;SDS011;4876;42.656;23.292;2023-09-19T12:37:04;16.93;;;6.57;;
9675;SDS011;4876;42.656;23.292;2023-09-19T12:39:41;7.37;;;6.00;;
9675;SDS011;4876;42.656;23.292;2023-09-19T12:42:09;11.23;;;6.23;;
9675;SDS011;4876;42.656;23.292;2023-09-19T12:44:40;10.87;;;5.80;;
9675;SDS011;4876;42.656;23.292;2023-09-19T12:47:12;10.13;;;6.00;;
9675;SDS011;4876;42.656;23.292;2023-09-19T12:52:37;9.57;;;6.13;;
9675;SDS011;4876;42.656;23.292;2023-09-19T12:55:05;8.87;;;5.90;;
9675;SDS011;4876;42.656;23.292;2023-09-19T12:57:33;11.37;;;6.10;;
9675;SDS011;4876;42.656;23.292;2023-09-19T13:00:00;13.37;;;6.10;;
9675;SDS011;4876;42.656;23.292;2023-09-19T13:02:28;11.87;;;5.57;;
9675;SDS011;4876;42.656;23.292;2023-09-19T13:04:54;11.03;;;5.87;;
9675;SDS011;4876;42.656;23.292;2023-09-19T13:07:41;13.70;;;5.40;;
9675;SDS011;4876;42.656;23.292;2023-09-19T13:10:10;7.30;;;5.40;;
9675;SDS011;4876;42.656;23.292;2023-09-19T13:12:41;11.23;;;6.07;;
9675;SDS011;4876;42.656;23.292;2023-09-19T13:15:09;12.77;;;5.87;;
9675;SDS011;4876;42.656;23.292;2023-09-19T13:17:45;7.50;;;6.00;;
9675;SDS011;4876;42.656;23.292;2023-09-19T13:20:23;8.03;;;5.50;;
9675;SDS011;4876;42.656;23.292;2023-09-19T13:22:55;9.77;;;5.53;;
9675;SDS011;4876;42.656;23.292;2023-09-19T13:25:25;10.00;;;5.67;;
9675;SDS011;4876;42.656;23.292;2023-09-19T13:27:55;10.53;;;5.83;;
9675;SDS011;4876;42.656;23.292;2023-09-19T13:30:23;10.87;;;5.77;;
9675;SDS011;4876;42.656;23.292;2023-09-19T13:32:51;14.67;;;5.70;;
9675;SDS011;4876;42.656;23.292;2023-09-19T13:35:19;6.87;;;5.40;;
9675;SDS011;4876;42.656;23.292;2023-09-19T13:37:46;8.50;;;6.13;;
9675;SDS011;4876;42.656;23.292;2023-09-19T13:40:18;9.23;;;5.67;;
9675;SDS011;4876;42.656;23.292;2023-09-19T13:42:45;12.70;;;5.07;;
9675;SDS011;4876;42.656;23.292;2023-09-19T13:45:11;6.23;;;5.27;;
9675;SDS011;4876;42.656;23.292;2023-09-19T13:47:41;9.10;;;5.10;;
9675;SDS011;4876;42.656;23.292;2023-09-19T13:50:08;11.43;;;5.77;;
9675;SDS011;4876;42.656;23.292;2023-09-19T13:52:35;7.10;;;5.40;;
9675;SDS011;4876;42.656;23.292;2023-09-19T13:55:03;6.00;;;4.83;;
9675;SDS011;4876;42.656;23.292;2023-09-19T13:57:33;8.23;;;5.17;;
9675;SDS011;4876;42.656;23.292;2023-09-19T14:00:00;12.37;;;4.93;;
9675;SDS011;4876;42.656;23.292;2023-09-19T14:02:27;11.10;;;5.53;;
9675;SDS011;4876;42.656;23.292;2023-09-19T14:04:55;8.33;;;5.27;;
9675;SDS011;4876;42.656;23.292;2023-09-19T14:07:23;10.53;;;5.10;;
9675;SDS011;4876;42.656;23.292;2023-09-19T14:09:50;10.80;;;5.13;;
9675;SDS011;4876;42.656;23.292;2023-09-19T14:12:18;8.73;;;5.63;;
9675;SDS011;4876;42.656;23.292;2023-09-19T14:14:46;13.57;;;5.53;;
9675;SDS011;4876;42.656;23.292;2023-09-19T14:17:13;8.40;;;5.27;;
9675;SDS011;4876;42.656;23.292;2023-09-19T14:19:40;9.23;;;5.47;;
9675;SDS011;4876;42.656;23.292;2023-09-19T14:22:09;7.07;;;5.10;;
9675;SDS011;4876;42.656;23.292;2023-09-19T14:24:36;8.60;;;5.20;;
9675;SDS011;4876;42.656;23.292;2023-09-19T14:27:04;8.90;;;5.60;;
9675;SDS011;4876;42.656;23.292;2023-09-19T14:29:32;8.80;;;6.10;;
9675;SDS011;4876;42.656;23.292;2023-09-19T14:32:00;10.97;;;6.53;;
9675;SDS011;4876;42.656;23.292;2023-09-19T14:34:27;10.03;;;6.13;;
9675;SDS011;4876;42.656;23.292;2023-09-19T14:36:53;11.40;;;7.53;;
9675;SDS011;4876;42.656;23.292;2023-09-19T14:39:20;14.57;;;8.70;;
9675;SDS011;4876;42.656;23.292;2023-09-19T14:41:48;12.93;;;11.07;;
9675;SDS011;4876;42.656;23.292;2023-09-19T14:44:15;24.13;;;12.73;;
9675;SDS011;4876;42.656;23.292;2023-09-19T14:46:42;26.03;;;19.37;;
9675;SDS011;4876;42.656;23.292;2023-09-19T14:49:11;23.07;;;19.17;;
9675;SDS011;4876;42.656;23.292;2023-09-19T14:51:38;23.77;;;18.13;;
9675;SDS011;4876;42.656;23.292;2023-09-19T14:54:06;19.87;;;14.43;;
9675;SDS011;4876;42.656;23.292;2023-09-19T14:56:33;24.33;;;12.70;;
9675;SDS011;4876;42.656;23.292;2023-09-19T14:59:00;28.33;;;13.20;;
9675;SDS011;4876;42.656;23.292;2023-09-19T15:01:27;18.27;;;11.97;;
9675;SDS011;4876;42.656;23.292;2023-09-19T15:03:54;18.57;;;12.03;;
9675;SDS011;4876;42.656;23.292;2023-09-19T15:06:23;19.67;;;13.13;;
9675;SDS011;4876;42.656;23.292;2023-09-19T15:08:51;15.53;;;12.43;;
9675;SDS011;4876;42.656;23.292;2023-09-19T15:11:18;22.40;;;12.03;;
9675;SDS011;4876;42.656;23.292;2023-09-19T15:13:47;24.63;;;8.97;;
9675;SDS011;4876;42.656;23.292;2023-09-19T15:16:16;23.00;;;8.37;;
9675;SDS011;4876;42.656;23.292;2023-09-19T15:18:45;11.87;;;7.87;;
9675;SDS011;4876;42.656;23.292;2023-09-19T15:21:12;16.37;;;7.43;;
9675;SDS011;4876;42.656;23.292;2023-09-19T15:23:41;12.67;;;6.50;;
9675;SDS011;4876;42.656;23.292;2023-09-19T15:26:14;16.20;;;6.93;;
9675;SDS011;4876;42.656;23.292;2023-09-19T15:28:47;22.27;;;7.23;;
9675;SDS011;4876;42.656;23.292;2023-09-19T15:31:36;12.00;;;6.23;;